createdAt,value
2017-10-19T00:01:10.424Z,12.70
2017-10-19T00:03:38.962Z,12.60
2017-10-19T00:06:07.333Z,12.60
2017-10-19T00:08:35.657Z,12.50
2017-10-19T00:11:04.881Z,12.50
2017-10-19T00:13:33.223Z,12.50
2017-10-19T00:16:02.315Z,12.50
2017-10-19T00:18:30.652Z,12.40
2017-10-19T00:20:59.467Z,12.40
2017-10-19T00:23:27.788Z,12.30
2017-10-19T00:25:56.107Z,12.40
2017-10-19T00:28:24.438Z,12.40
2017-10-19T00:30:52.795Z,12.40
2017-10-19T00:33:21.119Z,12.30
2017-10-19T00:35:49.431Z,12.30
2017-10-19T00:38:17.852Z,12.40
2017-10-19T00:40:46.162Z,12.30
2017-10-19T00:43:14.686Z,12.30
2017-10-19T00:45:43.778Z,12.20
2017-10-19T00:48:12.090Z,12.10
2017-10-19T00:50:40.774Z,12.20
2017-10-19T00:53:09.099Z,12.20
2017-10-19T00:55:37.449Z,12.20
2017-10-19T00:58:05.929Z,12.20
2017-10-19T01:00:35.010Z,12.20
2017-10-19T01:03:03.317Z,12.20
2017-10-19T01:05:32.043Z,12.20
2017-10-19T01:08:01.118Z,12.10
2017-10-19T01:10:29.472Z,12.00
2017-10-19T01:12:58.738Z,12.00
2017-10-19T01:15:27.055Z,12.00
2017-10-19T01:17:55.694Z,12.00
2017-10-19T01:20:24.059Z,12.00
2017-10-19T01:22:52.415Z,11.90
2017-10-19T01:25:21.506Z,11.90
2017-10-19T01:27:50.631Z,11.90
2017-10-19T01:30:18.952Z,11.80
2017-10-19T01:32:47.400Z,11.80
2017-10-19T01:35:15.716Z,11.80
2017-10-19T01:37:44.077Z,11.70
2017-10-19T01:40:12.414Z,11.70
2017-10-19T01:42:41.519Z,11.60
2017-10-19T01:45:10.615Z,11.60
2017-10-19T01:47:38.931Z,11.60
2017-10-19T01:50:07.260Z,11.60
2017-10-19T01:52:35.612Z,11.60
2017-10-19T01:55:03.961Z,11.60
2017-10-19T01:57:32.295Z,11.60
2017-10-19T02:00:01.396Z,11.60
2017-10-19T02:02:29.765Z,11.50
2017-10-19T02:04:58.855Z,11.50
2017-10-19T02:07:27.191Z,11.50
2017-10-19T02:09:55.652Z,11.50
2017-10-19T02:12:23.992Z,11.50
2017-10-19T02:14:52.338Z,11.50
2017-10-19T02:17:20.687Z,11.60
2017-10-19T02:19:49.172Z,11.60
2017-10-19T02:22:17.507Z,11.60
2017-10-19T02:24:45.819Z,11.50
2017-10-19T02:27:14.175Z,11.60
2017-10-19T02:29:42.454Z,11.50
2017-10-19T02:32:10.782Z,11.50
2017-10-19T02:34:39.107Z,11.50
2017-10-19T02:37:07.444Z,11.60
2017-10-19T02:39:35.759Z,11.50
2017-10-19T02:42:04.102Z,11.50
2017-10-19T02:44:33.002Z,11.40
2017-10-19T02:47:02.079Z,11.40
2017-10-19T02:49:31.179Z,11.40
2017-10-19T02:52:00.307Z,11.30
2017-10-19T02:54:28.665Z,11.30
2017-10-19T02:56:57.736Z,11.30
2017-10-19T02:59:26.070Z,11.30
2017-10-19T03:01:54.377Z,11.20
2017-10-19T03:04:22.703Z,11.20
2017-10-19T03:06:51.047Z,11.30
2017-10-19T03:09:19.950Z,11.30
2017-10-19T03:11:49.027Z,11.30
2017-10-19T03:14:17.464Z,11.30
2017-10-19T03:16:45.803Z,11.30
2017-10-19T03:19:14.889Z,11.30
2017-10-19T03:21:43.242Z,11.20
2017-10-19T03:24:11.551Z,11.30
2017-10-19T03:26:40.650Z,11.30
2017-10-19T03:29:08.998Z,11.20
2017-10-19T03:31:37.327Z,11.30
2017-10-19T03:34:05.630Z,11.20
2017-10-19T03:36:33.965Z,11.20
2017-10-19T03:39:02.295Z,11.30
2017-10-19T03:41:31.391Z,11.30
2017-10-19T03:43:59.746Z,11.20
2017-10-19T03:46:28.078Z,11.30
2017-10-19T03:48:57.168Z,11.20
2017-10-19T03:51:26.328Z,11.30
2017-10-19T03:53:54.642Z,11.20
2017-10-19T03:56:23.716Z,11.20
2017-10-19T03:58:52.045Z,11.20
2017-10-19T04:01:20.373Z,11.20
2017-10-19T04:03:49.495Z,11.10
2017-10-19T04:06:17.817Z,11.00
2017-10-19T04:08:46.152Z,11.00
2017-10-19T04:11:15.220Z,11.00
2017-10-19T04:13:43.542Z,10.90
2017-10-19T04:16:11.860Z,10.90
2017-10-19T04:18:40.203Z,10.80
2017-10-19T04:21:08.510Z,10.80
2017-10-19T04:23:37.118Z,10.70
2017-10-19T04:26:05.455Z,10.60
2017-10-19T04:28:33.761Z,10.60
2017-10-19T04:31:02.883Z,10.50
2017-10-19T04:33:31.959Z,10.50
2017-10-19T04:36:00.288Z,10.40
2017-10-19T04:38:28.622Z,10.50
2017-10-19T04:40:56.954Z,10.40
2017-10-19T04:43:25.268Z,10.30
2017-10-19T04:45:54.389Z,10.30
2017-10-19T04:48:22.730Z,10.20
2017-10-19T04:50:51.051Z,10.30
2017-10-19T04:53:20.163Z,10.20
2017-10-19T04:55:48.491Z,10.20
2017-10-19T04:58:16.823Z,10.20
2017-10-19T05:00:45.140Z,10.20
2017-10-19T05:03:13.448Z,10.20
2017-10-19T05:05:41.763Z,10.20
2017-10-19T05:08:10.082Z,10.20
2017-10-19T05:10:38.390Z,10.20
2017-10-19T05:13:06.724Z,10.30
2017-10-19T05:15:35.022Z,10.20
2017-10-19T05:18:04.211Z,10.20
2017-10-19T05:20:33.279Z,10.20
2017-10-19T05:23:01.599Z,10.10
2017-10-19T05:25:30.733Z,10.20
2017-10-19T05:27:59.043Z,10.20
2017-10-19T05:30:27.366Z,10.20
2017-10-19T05:32:55.659Z,10.20
2017-10-19T05:35:23.994Z,10.20
2017-10-19T05:37:53.077Z,10.10
2017-10-19T05:40:22.986Z,10.10
2017-10-19T05:42:51.300Z,10.10
2017-10-19T05:45:19.655Z,10.10
2017-10-19T05:47:48.721Z,10.10
2017-10-19T05:50:17.074Z,10.10
2017-10-19T05:52:45.512Z,10.10
2017-10-19T05:55:13.839Z,10.10
2017-10-19T05:57:42.176Z,10.10
2017-10-19T06:00:10.512Z,10.20
2017-10-19T06:02:38.870Z,10.10
2017-10-19T06:05:07.190Z,10.20
2017-10-19T06:07:36.275Z,10.20
2017-10-19T06:10:04.700Z,10.10
2017-10-19T06:12:33.037Z,10.20
2017-10-19T06:15:02.099Z,10.20
2017-10-19T06:17:33.374Z,10.20
2017-10-19T06:20:02.469Z,10.30
2017-10-19T06:22:31.582Z,10.30
2017-10-19T06:25:00.669Z,10.30
2017-10-19T06:27:29.742Z,10.30
2017-10-19T06:29:58.051Z,10.30
2017-10-19T06:32:26.366Z,10.30
2017-10-19T06:34:54.696Z,10.30
2017-10-19T06:37:23.774Z,10.30
2017-10-19T06:39:52.878Z,10.30
2017-10-19T06:42:21.192Z,10.30
2017-10-19T06:44:49.524Z,10.30
2017-10-19T06:47:18.584Z,10.30
2017-10-19T06:49:46.928Z,10.30
2017-10-19T06:52:15.236Z,10.30
2017-10-19T06:54:43.549Z,10.40
2017-10-19T06:57:11.875Z,10.40
2017-10-19T06:59:40.200Z,10.40
2017-10-19T07:02:09.834Z,10.50
2017-10-19T07:04:38.161Z,10.40
2017-10-19T07:07:07.284Z,10.60
2017-10-19T07:09:36.378Z,10.50
2017-10-19T07:12:04.695Z,10.50
2017-10-19T07:14:33.008Z,10.60
2017-10-19T07:17:01.355Z,10.70
2017-10-19T07:19:29.667Z,10.70
2017-10-19T07:21:57.971Z,10.80
2017-10-19T07:24:27.055Z,10.90
2017-10-19T07:26:56.125Z,11.00
2017-10-19T07:29:24.468Z,10.90
2017-10-19T07:31:52.775Z,11.10
2017-10-19T07:34:21.859Z,11.50
2017-10-19T07:36:50.153Z,11.40
2017-10-19T07:39:19.279Z,11.90
2017-10-19T07:41:48.359Z,12.00
2017-10-19T07:44:17.462Z,12.10
2017-10-19T07:46:45.792Z,12.10
2017-10-19T07:49:14.113Z,12.20
2017-10-19T07:51:42.435Z,12.30
2017-10-19T07:54:10.822Z,12.50
2017-10-19T07:56:39.171Z,12.50
2017-10-19T07:59:08.323Z,12.70
2017-10-19T08:01:36.854Z,12.60
2017-10-19T08:04:05.155Z,12.70
2017-10-19T08:06:33.502Z,12.70
2017-10-19T08:09:01.844Z,12.80
2017-10-19T08:11:30.156Z,12.80
2017-10-19T08:13:58.482Z,12.80
2017-10-19T08:16:26.783Z,12.80
2017-10-19T08:18:55.871Z,12.80
2017-10-19T08:21:24.956Z,12.90
2017-10-19T08:23:53.274Z,12.80
2017-10-19T08:26:21.572Z,12.90
2017-10-19T08:28:53.190Z,12.90
2017-10-19T08:31:21.573Z,13.00
2017-10-19T08:33:49.924Z,13.00
2017-10-19T08:36:19.008Z,13.20
2017-10-19T08:38:47.303Z,13.20
2017-10-19T08:41:15.653Z,13.40
2017-10-19T08:43:43.976Z,13.50
2017-10-19T08:46:12.295Z,13.60
2017-10-19T08:48:40.612Z,13.80
2017-10-19T08:51:08.986Z,13.90
2017-10-19T08:53:38.053Z,14.10
2017-10-19T08:56:06.413Z,14.10
2017-10-19T08:58:34.698Z,14.20
2017-10-19T09:01:03.023Z,14.30
2017-10-19T09:03:31.341Z,14.50
2017-10-19T09:05:59.704Z,14.60
2017-10-19T09:08:28.011Z,14.70
2017-10-19T09:10:56.332Z,14.80
2017-10-19T09:13:24.654Z,14.90
2017-10-19T09:15:52.977Z,15.00
2017-10-19T09:18:21.338Z,15.10
2017-10-19T09:20:49.636Z,15.20
2017-10-19T09:23:17.995Z,15.30
2017-10-19T09:25:46.347Z,15.40
2017-10-19T09:28:15.032Z,15.50
2017-10-19T09:30:43.334Z,15.60
2017-10-19T09:33:11.707Z,15.70
2017-10-19T09:35:40.019Z,15.80
2017-10-19T09:38:08.348Z,15.90
2017-10-19T09:40:37.797Z,16.00
2017-10-19T09:43:06.121Z,16.00
2017-10-19T09:45:34.442Z,16.10
2017-10-19T09:48:02.775Z,16.20
2017-10-19T09:50:31.095Z,16.40
2017-10-19T09:52:59.517Z,16.50
2017-10-19T09:55:27.854Z,16.60
2017-10-19T09:57:56.214Z,16.70
2017-10-19T10:00:25.344Z,16.90
2017-10-19T10:02:53.679Z,16.90
2017-10-19T10:05:22.763Z,17.10
2017-10-19T10:07:51.879Z,17.20
2017-10-19T10:10:20.946Z,17.30
2017-10-19T10:12:49.325Z,17.30
2017-10-19T10:15:17.634Z,17.40
2017-10-19T10:17:45.970Z,17.50
2017-10-19T10:20:14.266Z,17.50
2017-10-19T10:22:42.594Z,17.60
2017-10-19T10:25:10.926Z,17.70
2017-10-19T10:27:39.250Z,17.80
2017-10-19T10:30:07.580Z,17.80
2017-10-19T10:32:36.782Z,17.80
2017-10-19T10:35:05.144Z,17.90
2017-10-19T10:37:34.444Z,17.90
2017-10-19T10:40:02.799Z,17.90
2017-10-19T10:42:31.463Z,18.00
2017-10-19T10:44:59.814Z,18.00
2017-10-19T10:47:28.887Z,18.20
2017-10-19T10:49:58.238Z,18.30
2017-10-19T10:52:26.564Z,18.20
2017-10-19T10:54:54.910Z,18.30
2017-10-19T10:57:23.227Z,18.40
2017-10-19T10:59:52.297Z,18.60
2017-10-19T11:02:20.631Z,18.50
2017-10-19T11:04:48.936Z,18.60
2017-10-19T11:07:17.274Z,18.60
2017-10-19T11:09:45.639Z,18.70
2017-10-19T11:12:14.747Z,18.70
2017-10-19T11:14:43.058Z,18.70
2017-10-19T11:17:11.495Z,18.80
2017-10-19T11:19:40.595Z,18.90
2017-10-19T11:22:08.925Z,18.90
2017-10-19T11:24:37.280Z,18.90
2017-10-19T11:27:05.682Z,19.00
2017-10-19T11:29:33.991Z,19.00
2017-10-19T11:32:03.060Z,19.00
2017-10-19T11:34:31.375Z,19.00
2017-10-19T11:37:00.427Z,19.20
2017-10-19T11:39:28.774Z,19.10
2017-10-19T11:41:57.104Z,19.20
2017-10-19T11:44:26.229Z,19.30
2017-10-19T11:46:54.540Z,19.30
2017-10-19T11:49:23.671Z,19.40
2017-10-19T11:51:52.760Z,19.50
2017-10-19T11:54:21.847Z,19.50
2017-10-19T11:56:50.182Z,19.40
2017-10-19T11:59:19.275Z,19.50
2017-10-19T12:01:47.599Z,19.50
2017-10-19T12:04:16.704Z,19.60
2017-10-19T12:06:45.801Z,19.60
2017-10-19T12:09:14.122Z,19.60
2017-10-19T12:11:42.456Z,19.60
2017-10-19T12:14:11.524Z,19.70
2017-10-19T12:16:39.875Z,19.70
2017-10-19T12:19:08.174Z,19.80
2017-10-19T12:21:36.471Z,19.80
2017-10-19T12:24:04.795Z,19.90
2017-10-19T12:26:33.125Z,19.90
2017-10-19T12:29:02.240Z,20.00
2017-10-19T12:31:31.320Z,20.10
2017-10-19T12:33:59.648Z,20.00
2017-10-19T12:36:27.964Z,20.20
2017-10-19T12:38:56.315Z,20.20
2017-10-19T12:41:24.643Z,20.30
2017-10-19T12:43:52.987Z,20.30
2017-10-19T12:46:21.290Z,20.30
2017-10-19T12:48:50.411Z,20.40
2017-10-19T12:51:18.740Z,20.30
2017-10-19T12:53:47.076Z,20.40
2017-10-19T12:56:15.386Z,20.50
2017-10-19T12:58:43.695Z,20.50
2017-10-19T13:01:12.787Z,20.70
2017-10-19T13:03:41.120Z,20.60
2017-10-19T13:06:09.459Z,20.70
2017-10-19T13:08:37.778Z,20.70
2017-10-19T13:11:06.099Z,20.80
2017-10-19T13:13:34.403Z,20.80
2017-10-19T13:16:02.777Z,20.90
2017-10-19T13:18:31.086Z,21.00
2017-10-19T13:20:59.417Z,21.00
2017-10-19T13:23:27.743Z,20.90
2017-10-19T13:25:56.844Z,21.00
2017-10-19T13:28:25.165Z,20.90
2017-10-19T13:30:53.486Z,21.00
2017-10-19T13:33:21.821Z,21.00
2017-10-19T13:35:50.130Z,21.00
2017-10-19T13:38:18.458Z,21.10
2017-10-19T13:40:47.535Z,21.10
2017-10-19T13:43:16.036Z,21.10
2017-10-19T13:45:44.375Z,21.20
2017-10-19T13:48:12.701Z,21.20
2017-10-19T13:50:41.089Z,21.20
2017-10-19T13:53:09.722Z,21.20
2017-10-19T13:55:38.250Z,21.20
2017-10-19T13:58:06.774Z,21.10
2017-10-19T14:00:35.114Z,21.20
2017-10-19T14:03:03.633Z,21.20
2017-10-19T14:05:31.955Z,21.10
2017-10-19T14:08:00.300Z,21.10
2017-10-19T14:10:29.390Z,21.00
2017-10-19T14:12:57.758Z,21.00
2017-10-19T14:15:26.862Z,21.00
2017-10-19T14:17:55.999Z,21.00
2017-10-19T14:20:25.089Z,21.00
2017-10-19T14:22:54.188Z,20.90
2017-10-19T14:25:22.659Z,20.80
2017-10-19T14:27:51.025Z,20.90
2017-10-19T14:30:19.368Z,20.90
2017-10-19T14:32:47.770Z,21.00
2017-10-19T14:35:16.241Z,21.10
2017-10-19T14:37:44.594Z,21.10
2017-10-19T14:40:12.968Z,21.20
2017-10-19T14:42:41.342Z,21.20
2017-10-19T14:45:09.678Z,21.20
2017-10-19T14:47:38.054Z,21.20
2017-10-19T14:50:06.531Z,21.10
2017-10-19T14:52:34.831Z,21.00
2017-10-19T14:55:03.189Z,21.00
2017-10-19T14:57:32.286Z,20.90
2017-10-19T15:00:01.403Z,20.80
2017-10-19T15:02:29.766Z,20.80
2017-10-19T15:04:58.115Z,20.80
2017-10-19T15:07:26.555Z,20.80
2017-10-19T15:09:55.032Z,20.70
2017-10-19T15:12:24.158Z,20.60
2017-10-19T15:14:52.507Z,20.60
2017-10-19T15:17:21.854Z,20.40
2017-10-19T15:19:50.937Z,20.30
2017-10-19T15:22:19.320Z,20.20
2017-10-19T15:24:47.746Z,20.20
2017-10-19T15:27:16.935Z,20.00
2017-10-19T15:29:45.292Z,20.00
2017-10-19T15:32:13.701Z,20.00
2017-10-19T15:34:42.073Z,19.90
2017-10-19T15:37:10.410Z,19.80
2017-10-19T15:39:39.779Z,19.70
2017-10-19T15:42:08.101Z,19.60
2017-10-19T15:44:36.502Z,19.50
2017-10-19T15:47:04.856Z,19.50
2017-10-19T15:49:33.179Z,19.40
2017-10-19T15:52:01.541Z,19.30
2017-10-19T15:54:29.911Z,19.30
2017-10-19T15:56:58.267Z,19.20
2017-10-19T15:59:27.470Z,19.10
2017-10-19T16:01:55.794Z,19.00
2017-10-19T16:04:24.338Z,19.00
2017-10-19T16:06:53.450Z,18.80
2017-10-19T16:09:21.901Z,18.70
2017-10-19T16:11:50.289Z,18.70
2017-10-19T16:14:18.618Z,18.70
2017-10-19T16:16:47.081Z,18.60
2017-10-19T16:19:15.510Z,18.50
2017-10-19T16:21:43.890Z,18.50
2017-10-19T16:24:12.252Z,18.40
2017-10-19T16:26:41.417Z,18.20
2017-10-19T16:29:09.788Z,18.20
2017-10-19T16:31:42.527Z,18.20
2017-10-19T16:34:11.008Z,18.10
2017-10-19T16:36:39.452Z,18.10
2017-10-19T16:39:08.592Z,18.00
2017-10-19T16:41:36.944Z,17.90
2017-10-19T16:44:06.116Z,17.80
2017-10-19T16:46:34.736Z,17.80
2017-10-19T16:49:03.287Z,17.80
2017-10-19T16:51:32.400Z,17.80
2017-10-19T16:54:00.799Z,17.70
2017-10-19T16:56:29.183Z,17.70
2017-10-19T16:58:57.539Z,17.70
2017-10-19T17:01:25.899Z,17.60
2017-10-19T17:03:55.060Z,17.50
2017-10-19T17:06:23.409Z,17.50
2017-10-19T17:08:52.099Z,17.50
2017-10-19T17:11:21.246Z,17.40
2017-10-19T17:13:50.438Z,17.30
2017-10-19T17:16:18.874Z,17.30
2017-10-19T17:18:48.069Z,17.30
2017-10-19T17:21:16.563Z,17.30
2017-10-19T17:23:44.944Z,17.30
2017-10-19T17:26:13.380Z,17.30
2017-10-19T17:28:41.696Z,17.20
2017-10-19T17:31:10.376Z,17.20
2017-10-19T17:33:38.775Z,17.10
2017-10-19T17:36:07.513Z,17.10
2017-10-19T17:38:36.685Z,16.90
2017-10-19T17:41:04.966Z,16.90
2017-10-19T17:43:33.323Z,16.90
2017-10-19T17:46:01.663Z,16.90
2017-10-19T17:48:30.896Z,16.80
2017-10-19T17:50:59.228Z,16.80
2017-10-19T17:53:27.681Z,16.70
2017-10-19T17:55:55.987Z,16.70
2017-10-19T17:58:24.367Z,16.60
2017-10-19T18:00:53.440Z,16.50
2017-10-19T18:03:21.795Z,16.50
2017-10-19T18:05:50.115Z,16.50
2017-10-19T18:08:19.262Z,16.50
2017-10-19T18:10:48.398Z,16.40
2017-10-19T18:13:17.480Z,16.30
2017-10-19T18:15:46.600Z,16.30
2017-10-19T18:18:15.016Z,16.30
2017-10-19T18:20:43.339Z,16.30
2017-10-19T18:23:11.654Z,16.20
2017-10-19T18:25:40.015Z,16.10
2017-10-19T18:28:08.364Z,16.10
2017-10-19T18:30:37.482Z,16.00
2017-10-19T18:33:06.804Z,15.90
2017-10-19T18:35:35.114Z,15.90
2017-10-19T18:38:03.432Z,15.90
2017-10-19T18:40:31.796Z,15.80
2017-10-19T18:43:00.126Z,15.80
2017-10-19T18:45:28.435Z,15.80
2017-10-19T18:47:56.793Z,15.70
2017-10-19T18:50:25.123Z,15.70
2017-10-19T18:52:53.449Z,15.60
2017-10-19T18:55:21.778Z,15.60
2017-10-19T18:57:50.135Z,15.50
2017-10-19T19:00:19.211Z,15.40
2017-10-19T19:02:47.564Z,15.40
2017-10-19T19:05:15.932Z,15.30
2017-10-19T19:07:44.382Z,15.30
2017-10-19T19:10:12.724Z,15.30
2017-10-19T19:12:41.884Z,15.20
2017-10-19T19:15:10.375Z,15.20
2017-10-19T19:17:38.717Z,15.10
2017-10-19T19:20:07.851Z,15.10
2017-10-19T19:22:36.213Z,15.10
2017-10-19T19:25:05.017Z,15.10
2017-10-19T19:27:33.783Z,15.10
2017-10-19T19:30:02.724Z,15.00
2017-10-19T19:32:31.216Z,15.00
2017-10-19T19:35:00.356Z,14.90
2017-10-19T19:37:28.659Z,14.90
2017-10-19T19:39:56.997Z,14.90
2017-10-19T19:42:25.360Z,14.90
2017-10-19T19:44:53.681Z,14.80
2017-10-19T19:47:22.024Z,14.80
2017-10-19T19:49:50.349Z,14.70
2017-10-19T19:52:18.690Z,14.70
2017-10-19T19:54:47.786Z,14.70
2017-10-19T19:57:16.141Z,14.60
2017-10-19T19:59:44.460Z,14.60
2017-10-19T20:02:12.793Z,14.60
2017-10-19T20:04:41.135Z,14.60
2017-10-19T20:07:09.456Z,14.60
2017-10-19T20:09:38.543Z,14.50
2017-10-19T20:12:06.844Z,14.50
2017-10-19T20:14:35.183Z,14.50
2017-10-19T20:17:04.259Z,14.50
2017-10-19T20:19:32.650Z,14.50
2017-10-19T20:22:00.951Z,14.50
2017-10-19T20:24:30.047Z,14.50
2017-10-19T20:26:59.111Z,14.50
2017-10-19T20:29:27.475Z,14.40
2017-10-19T20:31:55.809Z,14.40
2017-10-19T20:34:24.122Z,14.40
2017-10-19T20:36:52.451Z,14.40
2017-10-19T20:39:20.760Z,14.40
2017-10-19T20:41:49.118Z,14.30
2017-10-19T20:44:17.427Z,14.30
2017-10-19T20:46:45.799Z,14.30
2017-10-19T20:49:14.165Z,14.20
2017-10-19T20:51:42.488Z,14.20
2017-10-19T20:54:10.844Z,14.20
2017-10-19T20:56:39.211Z,14.10
2017-10-19T20:59:07.524Z,14.10
2017-10-19T21:01:36.600Z,14.10
2017-10-19T21:04:04.929Z,14.10
2017-10-19T21:06:33.223Z,14.10
2017-10-19T21:09:01.552Z,14.10
2017-10-19T21:11:29.885Z,14.10
2017-10-19T21:13:58.218Z,14.10
2017-10-19T21:16:26.551Z,14.10
2017-10-19T21:18:54.966Z,14.10
2017-10-19T21:21:23.308Z,14.10
2017-10-19T21:23:51.729Z,14.10
2017-10-19T21:26:20.791Z,14.10
2017-10-19T21:28:49.103Z,14.00
2017-10-19T21:31:17.443Z,14.10
2017-10-19T21:33:45.796Z,14.00
2017-10-19T21:36:14.159Z,14.00
2017-10-19T21:38:42.475Z,14.00
2017-10-19T21:41:10.814Z,14.00
2017-10-19T21:43:39.135Z,14.00
2017-10-19T21:46:07.479Z,14.00
2017-10-19T21:48:35.795Z,13.90
2017-10-19T21:51:04.911Z,13.90
2017-10-19T21:53:33.220Z,13.90
2017-10-19T21:56:01.553Z,13.90
2017-10-19T21:58:30.661Z,13.90
2017-10-19T22:00:58.979Z,13.90
2017-10-19T22:03:27.299Z,13.90
2017-10-19T22:05:56.379Z,13.90
2017-10-19T22:08:24.717Z,13.90
2017-10-19T22:10:53.032Z,13.90
2017-10-19T22:13:22.146Z,13.90
2017-10-19T22:15:51.222Z,13.90
2017-10-19T22:18:19.575Z,13.90
2017-10-19T22:20:47.882Z,13.90
2017-10-19T22:23:16.227Z,13.90
2017-10-19T22:25:44.558Z,13.90
2017-10-19T22:28:12.879Z,13.90
2017-10-19T22:30:41.239Z,13.90
2017-10-19T22:33:09.556Z,13.90
2017-10-19T22:35:37.895Z,13.90
2017-10-19T22:38:06.240Z,13.90
2017-10-19T22:40:34.582Z,13.90
2017-10-19T22:43:02.897Z,13.90
2017-10-19T22:45:31.243Z,13.80
2017-10-19T22:47:59.587Z,13.80
2017-10-19T22:50:27.936Z,13.80
2017-10-19T22:52:57.938Z,13.70
2017-10-19T22:55:26.280Z,13.70
2017-10-19T22:57:55.408Z,13.70
2017-10-19T23:00:23.735Z,13.70
2017-10-19T23:02:52.092Z,13.70
2017-10-19T23:05:20.399Z,13.60
2017-10-19T23:07:48.742Z,13.60
2017-10-19T23:10:17.076Z,13.60
2017-10-19T23:12:45.415Z,13.60
2017-10-19T23:15:13.706Z,13.60
2017-10-19T23:17:42.000Z,13.50
2017-10-19T23:20:11.863Z,13.50
2017-10-19T23:22:40.190Z,13.50
2017-10-19T23:25:08.519Z,13.50
2017-10-19T23:27:36.855Z,13.50
2017-10-19T23:30:06.063Z,13.40
2017-10-19T23:32:34.476Z,13.40
2017-10-19T23:35:02.827Z,13.40
2017-10-19T23:37:31.151Z,13.40
2017-10-19T23:39:59.483Z,13.40
2017-10-19T23:42:27.830Z,13.30
2017-10-19T23:44:56.927Z,13.30
2017-10-19T23:47:25.299Z,13.30
2017-10-19T23:49:54.400Z,13.30
2017-10-19T23:52:22.752Z,13.20
2017-10-19T23:54:51.059Z,13.20
2017-10-19T23:57:19.406Z,13.20
2017-10-19T23:59:47.742Z,13.20
